sensor_id;sensor_type;location;lat;lon;timestamp;pressure;altitude;pressure_sealevel;temperature;humidity
60920;BME280;59039;52.108;19.942;2024-01-30T00:02:17;102326.38;;;2.66;75.98
60920;BME280;59039;52.108;19.942;2024-01-30T00:04:42;102326.91;;;2.66;75.98
60920;BME280;59039;52.108;19.942;2024-01-30T00:07:07;102322.11;;;2.66;76.00
60920;BME280;59039;52.108;19.942;2024-01-30T00:09:33;102321.80;;;2.64;76.01
60920;BME280;59039;52.108;19.942;2024-01-30T00:11:58;102321.11;;;2.63;75.92
60920;BME280;59039;52.108;19.942;2024-01-30T00:14:23;102323.26;;;2.63;76.04
60920;BME280;59039;52.108;19.942;2024-01-30T00:16:50;102322.20;;;2.63;76.06
60920;BME280;59039;52.108;19.942;2024-01-30T00:19:15;102316.91;;;2.61;75.89
60920;BME280;59039;52.108;19.942;2024-01-30T00:21:41;102316.40;;;2.61;75.85
60920;BME280;59039;52.108;19.942;2024-01-30T00:24:06;102316.63;;;2.59;75.79
60920;BME280;59039;52.108;19.942;2024-01-30T00:26:31;102316.67;;;2.57;75.88
60920;BME280;59039;52.108;19.942;2024-01-30T00:28:56;102315.32;;;2.56;75.85
60920;BME280;59039;52.108;19.942;2024-01-30T00:31:21;102315.17;;;2.55;75.72
60920;BME280;59039;52.108;19.942;2024-01-30T00:33:47;102313.41;;;2.54;75.86
60920;BME280;59039;52.108;19.942;2024-01-30T00:36:12;102312.91;;;2.53;75.68
60920;BME280;59039;52.108;19.942;2024-01-30T00:38:37;102310.98;;;2.51;75.73
60920;BME280;59039;52.108;19.942;2024-01-30T00:41:03;102309.45;;;2.49;75.82
60920;BME280;59039;52.108;19.942;2024-01-30T00:43:28;102310.52;;;2.50;75.79
60920;BME280;59039;52.108;19.942;2024-01-30T00:45:53;102309.83;;;2.49;75.76
60920;BME280;59039;52.108;19.942;2024-01-30T00:48:19;102310.40;;;2.48;75.75
60920;BME280;59039;52.108;19.942;2024-01-30T00:50:44;102308.62;;;2.48;75.74
60920;BME280;59039;52.108;19.942;2024-01-30T00:53:09;102310.08;;;2.47;75.71
60920;BME280;59039;52.108;19.942;2024-01-30T00:55:35;102308.98;;;2.47;75.64
60920;BME280;59039;52.108;19.942;2024-01-30T00:58:00;102309.90;;;2.47;75.66
60920;BME280;59039;52.108;19.942;2024-01-30T01:00:25;102304.92;;;2.46;75.67
60920;BME280;59039;52.108;19.942;2024-01-30T01:02:51;102300.88;;;2.44;75.65
60920;BME280;59039;52.108;19.942;2024-01-30T01:05:16;102304.33;;;2.43;75.54
60920;BME280;59039;52.108;19.942;2024-01-30T01:07:41;102307.02;;;2.43;75.49
60920;BME280;59039;52.108;19.942;2024-01-30T01:10:06;102307.95;;;2.42;75.55
60920;BME280;59039;52.108;19.942;2024-01-30T01:12:32;102311.54;;;2.42;75.46
60920;BME280;59039;52.108;19.942;2024-01-30T01:14:57;102314.24;;;2.41;75.40
60920;BME280;59039;52.108;19.942;2024-01-30T01:17:41;102313.73;;;2.40;75.40
60920;BME280;59039;52.108;19.942;2024-01-30T01:20:07;102318.08;;;2.39;75.35
60920;BME280;59039;52.108;19.942;2024-01-30T01:22:32;102318.48;;;2.38;75.20
60920;BME280;59039;52.108;19.942;2024-01-30T01:24:58;102316.59;;;2.36;75.19
60920;BME280;59039;52.108;19.942;2024-01-30T01:27:23;102310.94;;;2.33;75.25
60920;BME280;59039;52.108;19.942;2024-01-30T01:29:49;102306.71;;;2.32;75.22
60920;BME280;59039;52.108;19.942;2024-01-30T01:32:14;102303.59;;;2.29;75.24
60920;BME280;59039;52.108;19.942;2024-01-30T01:34:39;102303.98;;;2.28;75.26
60920;BME280;59039;52.108;19.942;2024-01-30T01:37:04;102308.12;;;2.27;75.33
60920;BME280;59039;52.108;19.942;2024-01-30T01:39:30;102301.42;;;2.25;75.34
60920;BME280;59039;52.108;19.942;2024-01-30T01:41:55;102299.48;;;2.24;75.31
60920;BME280;59039;52.108;19.942;2024-01-30T01:44:20;102297.18;;;2.23;75.35
60920;BME280;59039;52.108;19.942;2024-01-30T01:46:45;102293.81;;;2.22;75.30
60920;BME280;59039;52.108;19.942;2024-01-30T01:49:11;102298.33;;;2.21;75.31
60920;BME280;59039;52.108;19.942;2024-01-30T01:51:37;102296.07;;;2.20;75.33
60920;BME280;59039;52.108;19.942;2024-01-30T01:54:04;102295.75;;;2.18;75.22
60920;BME280;59039;52.108;19.942;2024-01-30T01:56:30;102290.84;;;2.15;75.29
60920;BME280;59039;52.108;19.942;2024-01-30T01:58:59;102286.64;;;2.13;75.41
60920;BME280;59039;52.108;19.942;2024-01-30T02:01:25;102286.67;;;2.12;75.29
60920;BME280;59039;52.108;19.942;2024-01-30T02:03:51;102283.48;;;2.12;75.41
60920;BME280;59039;52.108;19.942;2024-01-30T02:06:16;102284.94;;;2.11;75.29
60920;BME280;59039;52.108;19.942;2024-01-30T02:08:42;102285.13;;;2.10;75.35
60920;BME280;59039;52.108;19.942;2024-01-30T02:11:08;102280.35;;;2.09;75.27
60920;BME280;59039;52.108;19.942;2024-01-30T02:13:34;102280.23;;;2.07;75.17
60920;BME280;59039;52.108;19.942;2024-01-30T02:15:59;102276.73;;;2.05;75.23
60920;BME280;59039;52.108;19.942;2024-01-30T02:18:24;102275.89;;;2.04;75.28
60920;BME280;59039;52.108;19.942;2024-01-30T02:20:53;102273.92;;;2.03;75.28
60920;BME280;59039;52.108;19.942;2024-01-30T02:23:19;102268.59;;;2.02;75.20
60920;BME280;59039;52.108;19.942;2024-01-30T02:25:45;102270.20;;;2.02;75.33
60920;BME280;59039;52.108;19.942;2024-01-30T02:28:14;102271.85;;;2.01;75.37
60920;BME280;59039;52.108;19.942;2024-01-30T02:30:40;102269.76;;;1.99;75.29
60920;BME280;59039;52.108;19.942;2024-01-30T02:33:05;102266.27;;;1.97;75.32
60920;BME280;59039;52.108;19.942;2024-01-30T02:35:30;102267.02;;;1.96;75.37
60920;BME280;59039;52.108;19.942;2024-01-30T02:37:56;102265.47;;;1.95;75.43
60920;BME280;59039;52.108;19.942;2024-01-30T02:40:21;102265.70;;;1.93;75.45
60920;BME280;59039;52.108;19.942;2024-01-30T02:42:46;102266.14;;;1.91;75.42
60920;BME280;59039;52.108;19.942;2024-01-30T02:45:12;102266.02;;;1.89;75.47
60920;BME280;59039;52.108;19.942;2024-01-30T02:47:38;102263.89;;;1.89;75.50
60920;BME280;59039;52.108;19.942;2024-01-30T02:50:04;102263.02;;;1.88;75.41
60920;BME280;59039;52.108;19.942;2024-01-30T02:52:29;102260.55;;;1.87;75.51
60920;BME280;59039;52.108;19.942;2024-01-30T02:54:54;102263.78;;;1.87;75.56
60920;BME280;59039;52.108;19.942;2024-01-30T02:57:19;102262.71;;;1.86;75.67
60920;BME280;59039;52.108;19.942;2024-01-30T02:59:45;102259.85;;;1.86;75.68
60920;BME280;59039;52.108;19.942;2024-01-30T03:02:10;102261.11;;;1.87;75.70
60920;BME280;59039;52.108;19.942;2024-01-30T03:04:35;102265.54;;;1.87;75.65
60920;BME280;59039;52.108;19.942;2024-01-30T03:07:00;102266.81;;;1.87;75.58
60920;BME280;59039;52.108;19.942;2024-01-30T03:09:25;102268.56;;;1.88;75.63
60920;BME280;59039;52.108;19.942;2024-01-30T03:11:51;102268.57;;;1.88;75.56
60920;BME280;59039;52.108;19.942;2024-01-30T03:14:16;102268.55;;;1.88;75.53
60920;BME280;59039;52.108;19.942;2024-01-30T03:16:41;102269.06;;;1.89;75.50
60920;BME280;59039;52.108;19.942;2024-01-30T03:19:07;102264.79;;;1.89;75.40
60920;BME280;59039;52.108;19.942;2024-01-30T03:21:32;102266.71;;;1.90;75.32
60920;BME280;59039;52.108;19.942;2024-01-30T03:23:57;102268.73;;;1.89;75.30
60920;BME280;59039;52.108;19.942;2024-01-30T03:26:22;102268.18;;;1.89;75.30
60920;BME280;59039;52.108;19.942;2024-01-30T03:28:47;102268.19;;;1.88;75.26
60920;BME280;59039;52.108;19.942;2024-01-30T03:31:15;102271.24;;;1.88;75.31
60920;BME280;59039;52.108;19.942;2024-01-30T03:33:41;102271.09;;;1.87;75.22
60920;BME280;59039;52.108;19.942;2024-01-30T03:36:06;102267.00;;;1.86;75.26
60920;BME280;59039;52.108;19.942;2024-01-30T03:38:31;102265.03;;;1.87;75.16
60920;BME280;59039;52.108;19.942;2024-01-30T03:40:56;102264.88;;;1.86;75.17
60920;BME280;59039;52.108;19.942;2024-01-30T03:43:22;102264.02;;;1.85;75.12
60920;BME280;59039;52.108;19.942;2024-01-30T03:45:47;102264.80;;;1.83;75.05
60920;BME280;59039;52.108;19.942;2024-01-30T03:48:12;102261.29;;;1.81;74.96
60920;BME280;59039;52.108;19.942;2024-01-30T03:50:37;102257.40;;;1.80;75.06
60920;BME280;59039;52.108;19.942;2024-01-30T03:53:03;102261.42;;;1.77;74.93
60920;BME280;59039;52.108;19.942;2024-01-30T03:55:28;102255.43;;;1.75;74.99
60920;BME280;59039;52.108;19.942;2024-01-30T03:57:53;102257.98;;;1.74;75.00
60920;BME280;59039;52.108;19.942;2024-01-30T04:00:18;102257.69;;;1.72;74.96
60920;BME280;59039;52.108;19.942;2024-01-30T04:02:44;102257.57;;;1.70;74.88
60920;BME280;59039;52.108;19.942;2024-01-30T04:05:10;102254.02;;;1.70;74.98
60920;BME280;59039;52.108;19.942;2024-01-30T04:07:35;102253.33;;;1.68;75.12
60920;BME280;59039;52.108;19.942;2024-01-30T04:10:00;102251.91;;;1.68;75.01
60920;BME280;59039;52.108;19.942;2024-01-30T04:12:25;102258.02;;;1.67;75.15
60920;BME280;59039;52.108;19.942;2024-01-30T04:14:51;102260.89;;;1.67;75.18
60920;BME280;59039;52.108;19.942;2024-01-30T04:17:16;102258.77;;;1.66;75.20
60920;BME280;59039;52.108;19.942;2024-01-30T04:19:41;102252.86;;;1.67;75.08
60920;BME280;59039;52.108;19.942;2024-01-30T04:22:06;102248.59;;;1.65;75.01
60920;BME280;59039;52.108;19.942;2024-01-30T04:24:31;102252.88;;;1.66;74.96
60920;BME280;59039;52.108;19.942;2024-01-30T04:26:57;102253.84;;;1.64;75.09
60920;BME280;59039;52.108;19.942;2024-01-30T04:29:22;102248.17;;;1.62;75.05
60920;BME280;59039;52.108;19.942;2024-01-30T04:31:47;102250.74;;;1.60;75.14
60920;BME280;59039;52.108;19.942;2024-01-30T04:34:12;102244.54;;;1.59;75.13
60920;BME280;59039;52.108;19.942;2024-01-30T04:36:37;102245.61;;;1.59;75.15
60920;BME280;59039;52.108;19.942;2024-01-30T04:39:03;102245.09;;;1.58;75.19
60920;BME280;59039;52.108;19.942;2024-01-30T04:41:28;102245.31;;;1.57;75.26
60920;BME280;59039;52.108;19.942;2024-01-30T04:43:53;102246.23;;;1.56;75.28
60920;BME280;59039;52.108;19.942;2024-01-30T04:46:18;102247.73;;;1.55;75.30
60920;BME280;59039;52.108;19.942;2024-01-30T04:48:43;102247.23;;;1.53;75.31
60920;BME280;59039;52.108;19.942;2024-01-30T04:51:09;102246.55;;;1.52;75.25
60920;BME280;59039;52.108;19.942;2024-01-30T04:53:34;102246.94;;;1.51;75.25
60920;BME280;59039;52.108;19.942;2024-01-30T04:55:59;102245.23;;;1.49;75.31
60920;BME280;59039;52.108;19.942;2024-01-30T04:58:24;102247.78;;;1.48;75.28
60920;BME280;59039;52.108;19.942;2024-01-30T05:00:50;102249.98;;;1.46;75.37
60920;BME280;59039;52.108;19.942;2024-01-30T05:03:15;102257.33;;;1.45;75.26
60920;BME280;59039;52.108;19.942;2024-01-30T05:05:40;102258.56;;;1.46;75.36
60920;BME280;59039;52.108;19.942;2024-01-30T05:08:05;102258.94;;;1.45;75.45
60920;BME280;59039;52.108;19.942;2024-01-30T05:10:31;102257.88;;;1.45;75.43
60920;BME280;59039;52.108;19.942;2024-01-30T05:12:56;102253.27;;;1.44;75.54
60920;BME280;59039;52.108;19.942;2024-01-30T05:15:21;102251.67;;;1.44;75.51
60920;BME280;59039;52.108;19.942;2024-01-30T05:17:46;102259.17;;;1.43;75.61
60920;BME280;59039;52.108;19.942;2024-01-30T05:20:12;102254.02;;;1.43;75.73
60920;BME280;59039;52.108;19.942;2024-01-30T05:22:37;102252.64;;;1.41;75.77
60920;BME280;59039;52.108;19.942;2024-01-30T05:25:04;102256.75;;;1.41;75.67
60920;BME280;59039;52.108;19.942;2024-01-30T05:27:29;102257.31;;;1.40;75.68
60920;BME280;59039;52.108;19.942;2024-01-30T05:29:55;102259.66;;;1.39;75.69
60920;BME280;59039;52.108;19.942;2024-01-30T05:32:20;102260.93;;;1.39;75.76
60920;BME280;59039;52.108;19.942;2024-01-30T05:34:45;102262.88;;;1.40;75.67
60920;BME280;59039;52.108;19.942;2024-01-30T05:37:10;102261.42;;;1.40;75.66
60920;BME280;59039;52.108;19.942;2024-01-30T05:39:35;102258.19;;;1.41;75.69
60920;BME280;59039;52.108;19.942;2024-01-30T05:42:01;102257.12;;;1.41;75.75
60920;BME280;59039;52.108;19.942;2024-01-30T05:44:26;102258.15;;;1.42;75.67
60920;BME280;59039;52.108;19.942;2024-01-30T05:46:51;102256.70;;;1.42;75.62
60920;BME280;59039;52.108;19.942;2024-01-30T05:49:16;102258.27;;;1.43;75.68
60920;BME280;59039;52.108;19.942;2024-01-30T05:51:41;102256.30;;;1.43;75.53
60920;BME280;59039;52.108;19.942;2024-01-30T05:54:07;102254.54;;;1.43;75.43
60920;BME280;59039;52.108;19.942;2024-01-30T05:56:32;102257.39;;;1.43;75.51
60920;BME280;59039;52.108;19.942;2024-01-30T05:58:57;102256.37;;;1.42;75.43
60920;BME280;59039;52.108;19.942;2024-01-30T06:01:22;102260.33;;;1.41;75.42
60920;BME280;59039;52.108;19.942;2024-01-30T06:03:48;102262.33;;;1.39;75.46
60920;BME280;59039;52.108;19.942;2024-01-30T06:06:13;102269.13;;;1.40;75.40
60920;BME280;59039;52.108;19.942;2024-01-30T06:08:38;102269.84;;;1.40;75.42
60920;BME280;59039;52.108;19.942;2024-01-30T06:11:03;102266.27;;;1.40;75.48
60920;BME280;59039;52.108;19.942;2024-01-30T06:13:29;102265.92;;;1.39;75.54
60920;BME280;59039;52.108;19.942;2024-01-30T06:15:54;102268.93;;;1.40;75.48
60920;BME280;59039;52.108;19.942;2024-01-30T06:18:19;102270.37;;;1.40;75.47
60920;BME280;59039;52.108;19.942;2024-01-30T06:20:44;102271.25;;;1.40;75.50
60920;BME280;59039;52.108;19.942;2024-01-30T06:23:09;102270.35;;;1.41;75.42
60920;BME280;59039;52.108;19.942;2024-01-30T06:25:35;102270.54;;;1.40;75.53
60920;BME280;59039;52.108;19.942;2024-01-30T06:28:00;102272.33;;;1.40;75.47
60920;BME280;59039;52.108;19.942;2024-01-30T06:30:25;102275.38;;;1.39;75.45
60920;BME280;59039;52.108;19.942;2024-01-30T06:32:50;102275.75;;;1.39;75.60
60920;BME280;59039;52.108;19.942;2024-01-30T06:35:16;102274.16;;;1.39;75.56
60920;BME280;59039;52.108;19.942;2024-01-30T06:37:41;102276.82;;;1.39;75.61
60920;BME280;59039;52.108;19.942;2024-01-30T06:40:07;102274.51;;;1.39;75.54
60920;BME280;59039;52.108;19.942;2024-01-30T06:42:32;102273.25;;;1.39;75.61
60920;BME280;59039;52.108;19.942;2024-01-30T06:44:57;102273.08;;;1.38;75.64
60920;BME280;59039;52.108;19.942;2024-01-30T06:47:22;102274.52;;;1.38;75.66
60920;BME280;59039;52.108;19.942;2024-01-30T06:49:48;102275.77;;;1.38;75.76
60920;BME280;59039;52.108;19.942;2024-01-30T06:52:13;102279.70;;;1.38;75.83
60920;BME280;59039;52.108;19.942;2024-01-30T06:54:38;102280.75;;;1.39;75.93
60920;BME280;59039;52.108;19.942;2024-01-30T06:57:03;102281.78;;;1.40;75.93
60920;BME280;59039;52.108;19.942;2024-01-30T06:59:29;102282.13;;;1.41;76.09
60920;BME280;59039;52.108;19.942;2024-01-30T07:01:54;102284.59;;;1.42;76.13
60920;BME280;59039;52.108;19.942;2024-01-30T07:04:19;102283.31;;;1.42;76.17
60920;BME280;59039;52.108;19.942;2024-01-30T07:06:45;102280.95;;;1.44;76.18
60920;BME280;59039;52.108;19.942;2024-01-30T07:09:10;102283.58;;;1.46;76.28
60920;BME280;59039;52.108;19.942;2024-01-30T07:11:35;102286.04;;;1.47;76.31
60920;BME280;59039;52.108;19.942;2024-01-30T07:14:00;102285.47;;;1.48;76.37
60920;BME280;59039;52.108;19.942;2024-01-30T07:16:25;102290.63;;;1.49;76.39
60920;BME280;59039;52.108;19.942;2024-01-30T07:18:51;102288.45;;;1.50;76.47
60920;BME280;59039;52.108;19.942;2024-01-30T07:21:16;102289.84;;;1.51;76.46
60920;BME280;59039;52.108;19.942;2024-01-30T07:23:42;102288.69;;;1.53;76.62
60920;BME280;59039;52.108;19.942;2024-01-30T07:26:08;102290.57;;;1.56;76.69
60920;BME280;59039;52.108;19.942;2024-01-30T07:28:34;102287.27;;;1.58;76.77
60920;BME280;59039;52.108;19.942;2024-01-30T07:31:00;102283.77;;;1.61;76.73
60920;BME280;59039;52.108;19.942;2024-01-30T07:33:25;102282.25;;;1.64;76.72
60920;BME280;59039;52.108;19.942;2024-01-30T07:35:52;102282.31;;;1.67;76.75
60920;BME280;59039;52.108;19.942;2024-01-30T07:38:17;102280.94;;;1.71;76.83
60920;BME280;59039;52.108;19.942;2024-01-30T07:40:43;102282.44;;;1.74;76.82
60920;BME280;59039;52.108;19.942;2024-01-30T07:43:08;102283.91;;;1.78;76.90
60920;BME280;59039;52.108;19.942;2024-01-30T07:45:33;102286.13;;;1.82;76.93
60920;BME280;59039;52.108;19.942;2024-01-30T07:47:59;102284.02;;;1.86;76.96
60920;BME280;59039;52.108;19.942;2024-01-30T07:50:24;102284.76;;;1.90;76.88
60920;BME280;59039;52.108;19.942;2024-01-30T07:52:49;102284.09;;;1.94;76.85
60920;BME280;59039;52.108;19.942;2024-01-30T07:55:14;102282.70;;;1.98;76.94
60920;BME280;59039;52.108;19.942;2024-01-30T07:57:40;102282.75;;;2.01;76.71
60920;BME280;59039;52.108;19.942;2024-01-30T08:00:05;102281.92;;;2.04;76.76
60920;BME280;59039;52.108;19.942;2024-01-30T08:02:31;102280.17;;;2.08;76.78
60920;BME280;59039;52.108;19.942;2024-01-30T08:04:56;102274.47;;;2.13;76.80
60920;BME280;59039;52.108;19.942;2024-01-30T08:07:21;102271.23;;;2.18;76.77
60920;BME280;59039;52.108;19.942;2024-01-30T08:09:46;102266.39;;;2.24;76.75
60920;BME280;59039;52.108;19.942;2024-01-30T08:12:11;102264.80;;;2.28;76.54
60920;BME280;59039;52.108;19.942;2024-01-30T08:14:36;102267.62;;;2.34;76.48
60920;BME280;59039;52.108;19.942;2024-01-30T08:17:02;102270.63;;;2.40;76.55
60920;BME280;59039;52.108;19.942;2024-01-30T08:19:27;102273.29;;;2.45;76.28
60920;BME280;59039;52.108;19.942;2024-01-30T08:21:52;102270.91;;;2.52;76.44
60920;BME280;59039;52.108;19.942;2024-01-30T08:24:17;102270.36;;;2.57;76.34
60920;BME280;59039;52.108;19.942;2024-01-30T08:26:42;102268.55;;;2.62;75.89
60920;BME280;59039;52.108;19.942;2024-01-30T08:29:07;102262.41;;;2.68;76.08
60920;BME280;59039;52.108;19.942;2024-01-30T08:31:33;102260.96;;;2.73;75.87
60920;BME280;59039;52.108;19.942;2024-01-30T08:33:58;102263.07;;;2.79;75.90
60920;BME280;59039;52.108;19.942;2024-01-30T08:36:23;102264.11;;;2.84;75.94
60920;BME280;59039;52.108;19.942;2024-01-30T08:38:48;102266.60;;;2.89;75.79
60920;BME280;59039;52.108;19.942;2024-01-30T08:41:13;102269.66;;;2.94;75.74
60920;BME280;59039;52.108;19.942;2024-01-30T08:43:38;102269.44;;;3.00;75.54
60920;BME280;59039;52.108;19.942;2024-01-30T08:46:04;102266.33;;;3.05;75.22
60920;BME280;59039;52.108;19.942;2024-01-30T08:48:29;102269.15;;;3.11;75.32
60920;BME280;59039;52.108;19.942;2024-01-30T08:50:54;102273.21;;;3.17;75.18
60920;BME280;59039;52.108;19.942;2024-01-30T08:53:20;102272.81;;;3.23;75.28
60920;BME280;59039;52.108;19.942;2024-01-30T08:55:45;102272.73;;;3.29;75.15
60920;BME280;59039;52.108;19.942;2024-01-30T08:58:10;102271.67;;;3.33;74.90
60920;BME280;59039;52.108;19.942;2024-01-30T09:00:36;102270.54;;;3.39;75.01
60920;BME280;59039;52.108;19.942;2024-01-30T09:03:01;102267.83;;;3.44;74.63
60920;BME280;59039;52.108;19.942;2024-01-30T09:05:26;102266.69;;;3.49;74.87
60920;BME280;59039;52.108;19.942;2024-01-30T09:07:51;102268.61;;;3.55;74.62
60920;BME280;59039;52.108;19.942;2024-01-30T09:10:16;102268.73;;;3.61;74.47
60920;BME280;59039;52.108;19.942;2024-01-30T09:12:42;102267.45;;;3.65;74.53
60920;BME280;59039;52.108;19.942;2024-01-30T09:15:07;102265.10;;;3.70;74.05
60920;BME280;59039;52.108;19.942;2024-01-30T09:17:33;102264.32;;;3.76;74.24
60920;BME280;59039;52.108;19.942;2024-01-30T09:19:58;102261.04;;;3.82;74.16
60920;BME280;59039;52.108;19.942;2024-01-30T09:22:23;102258.16;;;3.86;73.88
60920;BME280;59039;52.108;19.942;2024-01-30T09:24:48;102257.59;;;3.90;73.57
60920;BME280;59039;52.108;19.942;2024-01-30T09:27:14;102255.27;;;3.94;73.52
60920;BME280;59039;52.108;19.942;2024-01-30T09:29:39;102252.92;;;3.99;73.56
60920;BME280;59039;52.108;19.942;2024-01-30T09:32:05;102246.63;;;4.03;73.04
60920;BME280;59039;52.108;19.942;2024-01-30T09:34:30;102240.29;;;4.09;73.20
60920;BME280;59039;52.108;19.942;2024-01-30T09:36:55;102239.84;;;4.15;72.98
60920;BME280;59039;52.108;19.942;2024-01-30T09:39:20;102242.65;;;4.20;72.87
60920;BME280;59039;52.108;19.942;2024-01-30T09:41:55;102244.06;;;4.25;72.69
60920;BME280;59039;52.108;19.942;2024-01-30T09:44:25;102242.23;;;4.30;71.80
60920;BME280;59039;52.108;19.942;2024-01-30T09:46:53;102239.49;;;4.34;72.06
60920;BME280;59039;52.108;19.942;2024-01-30T09:49:19;102237.48;;;4.39;72.16
60920;BME280;59039;52.108;19.942;2024-01-30T09:51:45;102240.52;;;4.44;72.05
60920;BME280;59039;52.108;19.942;2024-01-30T09:54:13;102236.35;;;4.48;72.24
60920;BME280;59039;52.108;19.942;2024-01-30T09:56:39;102235.81;;;4.52;71.12
60920;BME280;59039;52.108;19.942;2024-01-30T09:59:04;102230.42;;;4.56;71.74
60920;BME280;59039;52.108;19.942;2024-01-30T10:01:30;102228.09;;;4.60;71.39
60920;BME280;59039;52.108;19.942;2024-01-30T10:03:56;102226.39;;;4.66;70.80
60920;BME280;59039;52.108;19.942;2024-01-30T10:06:21;102223.83;;;4.71;71.36
60920;BME280;59039;52.108;19.942;2024-01-30T10:08:46;102222.17;;;4.75;70.88
60920;BME280;59039;52.108;19.942;2024-01-30T10:11:12;102214.94;;;4.80;71.25
60920;BME280;59039;52.108;19.942;2024-01-30T10:13:38;102214.88;;;4.85;70.94
60920;BME280;59039;52.108;19.942;2024-01-30T10:16:04;102215.91;;;4.89;70.75
60920;BME280;59039;52.108;19.942;2024-01-30T10:18:29;102213.73;;;4.94;70.68
60920;BME280;59039;52.108;19.942;2024-01-30T10:20:54;102211.90;;;4.98;70.57
60920;BME280;59039;52.108;19.942;2024-01-30T10:23:19;102207.73;;;5.02;69.49
60920;BME280;59039;52.108;19.942;2024-01-30T10:25:45;102207.19;;;5.07;69.48
60920;BME280;59039;52.108;19.942;2024-01-30T10:28:11;102206.64;;;5.10;68.72
60920;BME280;59039;52.108;19.942;2024-01-30T10:30:36;102210.59;;;5.14;69.87
60920;BME280;59039;52.108;19.942;2024-01-30T10:33:02;102206.62;;;5.18;69.84
60920;BME280;59039;52.108;19.942;2024-01-30T10:35:27;102211.86;;;5.21;69.32
60920;BME280;59039;52.108;19.942;2024-01-30T10:37:54;102200.58;;;5.24;68.27
60920;BME280;59039;52.108;19.942;2024-01-30T10:40:21;102197.37;;;5.27;68.85
60920;BME280;59039;52.108;19.942;2024-01-30T10:42:52;102193.45;;;5.30;69.05
60920;BME280;59039;52.108;19.942;2024-01-30T10:45:18;102191.09;;;5.34;69.01
60920;BME280;59039;52.108;19.942;2024-01-30T10:47:49;102188.45;;;5.36;68.21
60920;BME280;59039;52.108;19.942;2024-01-30T10:50:15;102184.84;;;5.40;68.68
60920;BME280;59039;52.108;19.942;2024-01-30T10:52:41;102184.07;;;5.44;68.63
60920;BME280;59039;52.108;19.942;2024-01-30T10:55:07;102187.65;;;5.49;68.87
60920;BME280;59039;52.108;19.942;2024-01-30T10:57:34;102181.12;;;5.53;69.18
60920;BME280;59039;52.108;19.942;2024-01-30T11:00:02;102173.74;;;5.57;69.04
60920;BME280;59039;52.108;19.942;2024-01-30T11:02:27;102175.31;;;5.61;67.43
60920;BME280;59039;52.108;19.942;2024-01-30T11:04:57;102166.14;;;5.65;68.21
60920;BME280;59039;52.108;19.942;2024-01-30T11:07:27;102164.73;;;5.68;67.94
60920;BME280;59039;52.108;19.942;2024-01-30T11:09:59;102158.67;;;5.70;67.82
60920;BME280;59039;52.108;19.942;2024-01-30T11:12:25;102158.87;;;5.73;67.47
60920;BME280;59039;52.108;19.942;2024-01-30T11:17:28;102148.93;;;5.77;67.71
60920;BME280;59039;52.108;19.942;2024-01-30T11:19:53;102147.66;;;5.80;68.13
60920;BME280;59039;52.108;19.942;2024-01-30T11:22:20;102143.42;;;5.82;67.74
60920;BME280;59039;52.108;19.942;2024-01-30T11:24:46;102142.20;;;5.85;67.09
60920;BME280;59039;52.108;19.942;2024-01-30T11:27:12;102140.98;;;5.88;67.78
60920;BME280;59039;52.108;19.942;2024-01-30T11:29:39;102136.73;;;5.90;67.42
60920;BME280;59039;52.108;19.942;2024-01-30T11:32:05;102133.94;;;5.92;66.88
60920;BME280;59039;52.108;19.942;2024-01-30T11:34:32;102136.33;;;5.95;66.64
60920;BME280;59039;52.108;19.942;2024-01-30T11:36:59;102128.80;;;5.98;67.25
60920;BME280;59039;52.108;19.942;2024-01-30T11:39:29;102128.14;;;6.00;66.70
60920;BME280;59039;52.108;19.942;2024-01-30T11:41:55;102122.98;;;6.02;66.64
60920;BME280;59039;52.108;19.942;2024-01-30T11:44:24;102124.64;;;6.04;67.23
60920;BME280;59039;52.108;19.942;2024-01-30T11:46:50;102120.20;;;6.07;67.07
60920;BME280;59039;52.108;19.942;2024-01-30T11:49:16;102117.90;;;6.09;67.08
60920;BME280;59039;52.108;19.942;2024-01-30T11:51:41;102114.58;;;6.11;66.41
60920;BME280;59039;52.108;19.942;2024-01-30T11:54:07;102117.70;;;6.13;67.01
60920;BME280;59039;52.108;19.942;2024-01-30T11:56:33;102113.27;;;6.15;67.01
60920;BME280;59039;52.108;19.942;2024-01-30T11:58:58;102114.44;;;6.17;66.72
60920;BME280;59039;52.108;19.942;2024-01-30T12:01:23;102110.40;;;6.18;66.89
60920;BME280;59039;52.108;19.942;2024-01-30T12:03:50;102109.92;;;6.20;67.10
60920;BME280;59039;52.108;19.942;2024-01-30T12:06:15;102108.23;;;6.21;66.80
60920;BME280;59039;52.108;19.942;2024-01-30T12:08:41;102107.19;;;6.24;66.77
60920;BME280;59039;52.108;19.942;2024-01-30T12:11:06;102107.76;;;6.26;66.82
60920;BME280;59039;52.108;19.942;2024-01-30T12:13:32;102108.55;;;6.29;66.53
60920;BME280;59039;52.108;19.942;2024-01-30T12:15:57;102104.64;;;6.31;66.15
60920;BME280;59039;52.108;19.942;2024-01-30T12:18:22;102109.06;;;6.33;66.15
60920;BME280;59039;52.108;19.942;2024-01-30T12:21:00;102106.64;;;6.34;66.53
60920;BME280;59039;52.108;19.942;2024-01-30T12:23:28;102104.92;;;6.36;65.99
60920;BME280;59039;52.108;19.942;2024-01-30T12:25:54;102105.92;;;6.37;65.83
60920;BME280;59039;52.108;19.942;2024-01-30T12:28:20;102106.17;;;6.39;66.10
60920;BME280;59039;52.108;19.942;2024-01-30T12:30:45;102105.50;;;6.41;66.03
60920;BME280;59039;52.108;19.942;2024-01-30T12:33:16;102105.20;;;6.43;66.40
60920;BME280;59039;52.108;19.942;2024-01-30T12:35:45;102104.70;;;6.46;66.12
60920;BME280;59039;52.108;19.942;2024-01-30T12:38:11;102098.45;;;6.48;66.12
60920;BME280;59039;52.108;19.942;2024-01-30T12:40:36;102096.34;;;6.51;66.22
60920;BME280;59039;52.108;19.942;2024-01-30T12:43:01;102093.55;;;6.52;66.37
60920;BME280;59039;52.108;19.942;2024-01-30T12:45:27;102090.93;;;6.54;66.37